Time;durP1;ratioP1;P1;durP2;ratioP2;P2;SDS_P1;SDS_P2;PMS_P1;PMS_P2;Temp;Humidity;BMP_temperature;BMP_pressure;BME280_temperature;BME280_humidity;BME280_pressure;Samples;Min_cycle;Max_cycle;Signal;HPM_P1;HPM_P2
2022/03/21 00:01:18;;;;;;;171.70;78.40;;;;;;;-1.17;40.21;100971.80;107336;1284;22585;-74
2022/03/21 00:03:46;;;;;;;234.40;99.00;;;;;;;-1.22;40.64;100973.73;107372;1284;25202;-78
2022/03/21 00:06:13;;;;;;;297.00;122.30;;;;;;;-1.28;40.42;100975.34;107365;1285;22732;-73
2022/03/21 00:08:43;;;;;;;308.10;127.90;;;;;;;-1.32;40.63;100976.60;107362;1284;22749;-84
2022/03/21 00:11:12;;;;;;;283.00;115.50;;;;;;;-1.37;40.92;100975.50;107245;1285;23228;-71
2022/03/21 00:13:39;;;;;;;282.20;117.20;;;;;;;-1.42;40.92;100976.59;107209;1287;23523;-80
2022/03/21 00:16:07;;;;;;;248.80;102.80;;;;;;;-1.46;41.38;100974.27;107335;1286;22703;-81
2022/03/21 00:18:34;;;;;;;192.90;82.20;;;;;;;-1.51;41.34;100976.23;107375;1286;22644;-79
2022/03/21 00:21:01;;;;;;;146.10;63.80;;;;;;;-1.55;41.53;100976.33;107419;1287;24531;-74
2022/03/21 00:23:30;;;;;;;105.20;47.60;;;;;;;-1.60;41.81;100975.20;107385;1285;22609;-82
2022/03/21 00:25:57;;;;;;;83.40;36.20;;;;;;;-1.63;42.04;100972.41;107237;1285;25437;-75
2022/03/21 00:28:24;;;;;;;75.10;32.30;;;;;;;-1.66;41.49;100970.80;107330;1285;22689;-77
2022/03/21 00:30:51;;;;;;;67.30;29.50;;;;;;;-1.68;41.75;100971.76;107418;1285;22692;-74
2022/03/21 00:33:18;;;;;;;68.90;30.00;;;;;;;-1.72;41.81;100975.27;107435;1286;25351;-78
2022/03/21 00:35:48;;;;;;;78.10;32.90;;;;;;;-1.77;42.19;100976.88;107395;1285;25583;-80
2022/03/21 00:38:17;;;;;;;78.00;32.30;;;;;;;-1.81;42.40;100978.50;107248;1287;22550;-77
2022/03/21 00:40:46;;;;;;;65.50;27.40;;;;;;;-1.84;42.23;100976.02;107364;1285;24339;-79
2022/03/21 00:43:21;;;;;;;41.20;19.60;;;;;;;-1.83;41.89;100973.66;107323;1285;23362;-73
2022/03/21 00:45:53;;;;;;;55.20;23.80;;;;;;;-1.78;42.29;100972.92;107407;1285;22732;-82
2022/03/21 00:48:22;;;;;;;64.50;27.00;;;;;;;-1.73;42.32;100969.96;107398;1285;22565;-77
2022/03/21 00:50:49;;;;;;;59.60;27.70;;;;;;;-1.68;41.88;100967.33;107390;1285;22583;-78
2022/03/21 00:53:17;;;;;;;71.00;29.60;;;;;;;-1.64;41.91;100966.57;107514;1285;22642;-71
2022/03/21 00:55:45;;;;;;;70.50;31.20;;;;;;;-1.63;42.02;100967.80;107390;1285;23451;-79
2022/03/21 00:58:13;;;;;;;64.40;28.20;;;;;;;-1.62;42.14;100965.77;107763;1285;22549;-77
2022/03/21 01:00:41;;;;;;;71.10;30.60;;;;;;;-1.63;42.29;100961.47;107362;1285;22557;-73
2022/03/21 01:03:08;;;;;;;73.50;29.60;;;;;;;-1.66;42.48;100962.92;107414;1285;22623;-81
2022/03/21 01:05:36;;;;;;;65.30;28.10;;;;;;;-1.69;42.34;100962.67;107385;1285;22691;-81
2022/03/21 01:08:04;;;;;;;60.70;25.40;;;;;;;-1.74;42.35;100970.29;107441;1286;22644;-81
2022/03/21 01:10:33;;;;;;;64.80;25.20;;;;;;;-1.78;43.56;100967.45;107444;1285;22557;-75
2022/03/21 01:13:00;;;;;;;69.10;29.10;;;;;;;-1.82;42.89;100967.71;107396;1285;22729;-79
2022/03/21 01:15:28;;;;;;;67.70;30.10;;;;;;;-1.88;43.53;100967.40;107426;1285;22582;-77
2022/03/21 01:17:56;;;;;;;77.80;33.30;;;;;;;-1.96;43.10;100968.09;107192;1286;22573;-79
2022/03/21 01:20:24;;;;;;;89.10;36.50;;;;;;;-2.11;43.62;100967.40;107399;1285;22548;-77
2022/03/21 01:22:52;;;;;;;76.60;34.30;;;;;;;-2.27;44.36;100968.23;107412;1285;22556;-78
2022/03/21 01:25:19;;;;;;;77.40;31.50;;;;;;;-2.38;45.36;100971.38;107453;1284;22744;-81
2022/03/21 01:27:46;;;;;;;78.60;33.00;;;;;;;-2.45;45.60;100968.14;107429;1286;22711;-76
2022/03/21 01:30:15;;;;;;;78.00;31.70;;;;;;;-2.49;44.45;100964.96;107393;1285;22579;-71
2022/03/21 01:32:43;;;;;;;67.90;31.20;;;;;;;-2.53;44.80;100963.51;107411;1285;22732;-76
2022/03/21 01:35:12;;;;;;;80.70;33.40;;;;;;;-2.56;44.94;100965.13;107408;1285;22630;-72
2022/03/21 01:37:40;;;;;;;71.30;32.30;;;;;;;-2.58;44.57;100962.85;107485;1285;22563;-73
2022/03/21 01:40:08;;;;;;;58.40;26.40;;;;;;;-2.61;45.56;100957.86;107361;1284;22557;-73
2022/03/21 01:42:36;;;;;;;75.90;31.80;;;;;;;-2.62;45.10;100961.58;107360;1283;23788;-77
2022/03/21 01:45:05;;;;;;;68.50;31.50;;;;;;;-2.66;45.14;100957.04;106915;1285;459636;-77
2022/03/21 01:47:33;;;;;;;68.30;29.30;;;;;;;-2.68;44.90;100957.34;107884;1285;22749;-82
2022/03/21 01:50:02;;;;;;;72.20;31.50;;;;;;;-2.68;44.93;100951.52;107416;1285;22585;-76
2022/03/21 01:52:29;;;;;;;70.20;30.70;;;;;;;-2.70;45.04;100955.61;107222;1285;22609;-74
2022/03/21 01:57:46;;;;;;;80.70;33.30;;;;;;;-2.74;45.49;100958.05;107410;1284;22556;-73
2022/03/21 02:00:14;;;;;;;83.10;35.60;;;;;;;-2.75;45.19;100954.77;107467;1284;22726;-76
2022/03/21 02:02:42;;;;;;;80.00;34.60;;;;;;;-2.76;45.72;100955.59;107206;1284;22635;-77
2022/03/21 02:05:09;;;;;;;86.00;36.80;;;;;;;-2.78;45.39;100951.80;107164;1285;22626;-81
2022/03/21 02:07:37;;;;;;;92.60;41.50;;;;;;;-2.80;46.01;100951.74;107401;1285;22617;-76
2022/03/21 02:10:06;;;;;;;105.80;50.00;;;;;;;-2.83;46.38;100954.21;107452;1284;22560;-78
2022/03/21 02:12:33;;;;;;;141.70;63.60;;;;;;;-2.85;46.14;100956.38;107514;1284;23495;-76
2022/03/21 02:15:02;;;;;;;115.70;46.80;;;;;;;-2.87;45.49;100951.73;107428;1284;22553;-75
2022/03/21 02:17:33;;;;;;;112.40;42.70;;;;;;;-2.95;46.51;100954.06;107638;1284;22590;-76
2022/03/21 02:20:04;;;;;;;118.70;47.40;;;;;;;-3.03;46.64;100952.17;107667;1284;22616;-72
2022/03/21 02:22:33;;;;;;;121.70;46.30;;;;;;;-3.08;46.98;100952.02;107678;1284;22721;-87
2022/03/21 02:25:15;;;;;;;114.10;47.60;;;;;;;-3.13;46.84;100952.23;107714;1284;24237;-86
2022/03/21 02:27:45;;;;;;;88.70;36.50;;;;;;;-3.18;47.21;100957.23;107714;1285;22683;-84
2022/03/21 02:30:14;;;;;;;121.70;47.10;;;;;;;-3.23;47.24;100959.31;107725;1284;22791;-81
2022/03/21 02:32:42;;;;;;;123.40;49.70;;;;;;;-3.27;46.17;100954.77;107698;1284;22641;-73
2022/03/21 02:35:10;;;;;;;131.00;52.50;;;;;;;-3.28;46.46;100960.16;107699;1284;24245;-74
2022/03/21 02:37:39;;;;;;;150.10;55.90;;;;;;;-3.30;46.48;100963.86;107753;1284;22589;-83
2022/03/21 02:40:08;;;;;;;133.10;52.90;;;;;;;-3.31;46.50;100964.02;107720;1285;22551;-82
2022/03/21 02:42:35;;;;;;;109.10;42.90;;;;;;;-3.33;48.15;100964.30;107729;1285;22549;-84
2022/03/21 02:45:04;;;;;;;116.80;47.70;;;;;;;-3.34;47.07;100965.80;107727;1284;22852;-85
2022/03/21 02:47:31;;;;;;;111.40;45.50;;;;;;;-3.37;48.92;100964.70;107689;1284;22636;-70
2022/03/21 02:50:00;;;;;;;102.40;44.30;;;;;;;-3.40;47.04;100967.18;107725;1284;22562;-80
2022/03/21 02:52:29;;;;;;;104.50;45.10;;;;;;;-3.44;47.78;100967.94;107698;1284;22544;-84
2022/03/21 02:54:56;;;;;;;109.70;45.80;;;;;;;-3.46;47.06;100971.27;107707;1284;22681;-79
2022/03/21 02:57:24;;;;;;;101.30;44.00;;;;;;;-3.48;46.69;100966.45;107733;1284;22639;-79
2022/03/21 02:59:51;;;;;;;103.90;42.20;;;;;;;-3.50;46.99;100969.79;107720;1284;22687;-84
2022/03/21 03:02:18;;;;;;;99.90;39.40;;;;;;;-3.52;47.13;100972.30;107731;1284;22681;-79
2022/03/21 03:04:45;;;;;;;83.90;35.10;;;;;;;-3.54;47.83;100976.32;107695;1284;22583;-78
2022/03/21 03:07:12;;;;;;;91.40;38.20;;;;;;;-3.54;47.44;100972.91;107698;1284;22864;-83
2022/03/21 03:09:39;;;;;;;91.10;37.40;;;;;;;-3.56;47.97;100973.37;107697;1284;22602;-82
2022/03/21 03:12:08;;;;;;;90.40;36.90;;;;;;;-3.58;47.62;100971.27;107699;1284;22687;-74
2022/03/21 03:14:35;;;;;;;87.00;36.60;;;;;;;-3.59;47.32;100969.02;107700;1284;22604;-85
2022/03/21 03:17:02;;;;;;;76.00;34.30;;;;;;;-3.62;47.63;100972.67;107703;1284;22680;-77
2022/03/21 03:19:29;;;;;;;68.80;29.80;;;;;;;-3.64;48.49;100969.39;107709;1284;22581;-78
2022/03/21 03:21:57;;;;;;;71.10;30.10;;;;;;;-3.66;48.33;100968.11;107714;1284;22647;-84
2022/03/21 03:24:26;;;;;;;87.60;35.60;;;;;;;-3.68;47.64;100968.59;107720;1284;24257;-82
2022/03/21 03:26:54;;;;;;;85.40;36.60;;;;;;;-3.71;47.71;100969.01;107708;1284;22590;-85
2022/03/21 03:29:21;;;;;;;83.70;35.20;;;;;;;-3.72;47.77;100968.29;107712;1284;22793;-83
2022/03/21 03:31:48;;;;;;;91.20;36.90;;;;;;;-3.74;48.09;100966.53;107520;1285;22556;-85
2022/03/21 03:34:15;;;;;;;85.70;36.70;;;;;;;-3.76;47.98;100971.61;107707;1284;26066;-73
2022/03/21 03:36:42;;;;;;;101.00;42.10;;;;;;;-3.77;48.86;100972.05;107722;1284;22638;-76
2022/03/21 03:39:09;;;;;;;102.20;43.40;;;;;;;-3.81;48.29;100970.08;107711;1284;22579;-86
2022/03/21 03:41:37;;;;;;;131.90;52.20;;;;;;;-3.83;48.43;100966.27;107507;1285;22577;-84
2022/03/21 03:44:04;;;;;;;94.80;40.50;;;;;;;-3.86;48.51;100966.03;107724;1284;25324;-72
2022/03/21 03:46:31;;;;;;;86.10;35.70;;;;;;;-3.87;48.42;100963.27;107711;1284;22665;-71
2022/03/21 03:48:58;;;;;;;87.10;36.90;;;;;;;-3.89;48.53;100961.32;107700;1284;24249;-80
2022/03/21 03:51:25;;;;;;;104.10;40.70;;;;;;;-3.92;48.91;100957.81;107698;1284;22713;-83
2022/03/21 03:53:52;;;;;;;93.80;39.90;;;;;;;-3.93;48.80;100957.96;107444;1285;22725;-73
2022/03/21 03:56:19;;;;;;;78.90;33.00;;;;;;;-3.94;48.96;100957.61;107445;1284;25420;-82
2022/03/21 03:58:46;;;;;;;84.90;31.00;;;;;;;-3.95;49.46;100953.15;107442;1285;22640;-74
2022/03/21 04:01:13;;;;;;;84.70;30.40;;;;;;;-3.97;49.58;100957.70;107488;1285;22931;-79
2022/03/21 04:03:46;;;;;;;80.20;30.50;;;;;;;-4.00;49.67;100955.17;107429;1284;23522;-78
2022/03/21 04:06:18;;;;;;;;;;;;;;;-4.03;49.71;100955.29;107431;1285;24318;-83
2022/03/21 04:08:46;;;;;;;72.50;29.30;;;;;;;-4.05;49.47;100952.66;107434;1285;22692;-82
2022/03/21 04:11:14;;;;;;;85.80;31.60;;;;;;;-4.07;49.54;100953.80;107444;1285;26628;-78
2022/03/21 04:13:41;;;;;;;84.60;33.40;;;;;;;-4.08;49.62;100957.85;107452;1285;22699;-79
2022/03/21 04:16:09;;;;;;;82.70;36.10;;;;;;;-4.09;49.78;100959.32;107795;1284;23464;-76
2022/03/21 04:18:37;;;;;;;77.30;32.90;;;;;;;-4.11;49.90;100962.85;107405;1285;22626;-82
2022/03/21 04:21:04;;;;;;;92.20;34.00;;;;;;;-4.13;49.98;100962.64;107393;1285;24512;-78
2022/03/21 04:23:32;;;;;;;78.60;31.70;;;;;;;-4.14;50.11;100958.19;107429;1285;23131;-74
2022/03/21 04:25:59;;;;;;;76.00;32.10;;;;;;;-4.14;50.02;100961.40;107492;1284;22574;-74
2022/03/21 04:28:26;;;;;;;85.10;32.50;;;;;;;-4.17;49.94;100960.67;107429;1285;23482;-77
2022/03/21 04:30:53;;;;;;;87.60;35.90;;;;;;;-4.18;50.24;100965.55;107427;1284;24268;-83
2022/03/21 04:33:20;;;;;;;103.90;40.50;;;;;;;-4.21;50.33;100968.54;107439;1284;23401;-82
2022/03/21 04:35:47;;;;;;;97.80;39.90;;;;;;;-4.21;50.56;100968.86;107493;1284;22583;-76
2022/03/21 04:38:14;;;;;;;91.80;36.70;;;;;;;-4.21;50.55;100969.55;107450;1284;22723;-71
2022/03/21 04:40:45;;;;;;;85.90;36.20;;;;;;;-4.22;50.57;100965.10;107441;1284;23169;-83
2022/03/21 04:43:13;;;;;;;97.20;38.50;;;;;;;-4.21;50.49;100967.52;107419;1284;22591;-83
2022/03/21 04:45:42;;;;;;;118.20;45.00;;;;;;;-4.20;50.52;100967.70;107456;1284;25338;-80
2022/03/21 04:48:10;;;;;;;126.20;47.80;;;;;;;-4.15;51.33;100967.36;107521;1284;22727;-76
2022/03/21 04:50:38;;;;;;;121.80;46.10;;;;;;;-4.09;51.79;100969.72;107449;1284;22651;-81
2022/03/21 04:53:06;;;;;;;109.00;41.40;;;;;;;-4.05;53.47;100968.67;107686;1284;22698;-80
2022/03/21 04:55:34;;;;;;;120.30;41.60;;;;;;;-4.03;53.80;100969.75;107481;1284;25522;-77
2022/03/21 04:58:01;;;;;;;90.70;35.30;;;;;;;-4.02;53.42;100972.65;107452;1284;23140;-76
2022/03/21 05:00:28;;;;;;;101.40;36.50;;;;;;;-4.02;52.96;100974.72;107474;1284;22659;-75
2022/03/21 05:02:55;;;;;;;102.40;36.50;;;;;;;-3.99;52.86;100979.55;107528;1284;24247;-79
2022/03/21 05:05:24;;;;;;;96.30;36.90;;;;;;;-3.99;52.89;100973.95;107454;1284;22616;-80
2022/03/21 05:07:54;;;;;;;104.80;42.50;;;;;;;-3.99;52.59;100976.00;107469;1284;22577;-79
2022/03/21 05:10:22;;;;;;;163.40;59.80;;;;;;;-3.98;52.40;100976.88;107485;1284;22743;-79
2022/03/21 05:12:50;;;;;;;229.30;78.90;;;;;;;-3.98;52.66;100981.16;107476;1284;22638;-74
2022/03/21 05:15:18;;;;;;;310.10;107.30;;;;;;;-3.96;52.83;100981.88;107525;1284;22540;-72
2022/03/21 05:17:45;;;;;;;281.40;96.60;;;;;;;-3.95;52.72;100983.13;107194;1285;22574;-77
2022/03/21 05:20:16;;;;;;;244.00;87.60;;;;;;;-3.90;52.71;100982.40;107493;1284;22622;-73
2022/03/21 05:31:08;;;;;;;183.80;64.40;;;;;;;-3.32;53.23;100985.97;107513;1284;25703;-81
2022/03/21 05:36:26;;;;;;;123.30;47.90;;;;;;;-2.77;54.11;100989.50;107494;1284;23249;-71
2022/03/21 05:38:57;;;;;;;113.40;47.80;;;;;;;-2.48;54.77;100993.31;107462;1284;22560;-75
2022/03/21 05:41:25;;;;;;;111.70;45.60;;;;;;;-2.22;54.98;100990.70;107527;1284;22638;-72
2022/03/21 05:43:52;;;;;;;179.80;71.00;;;;;;;-1.99;55.17;100995.17;107555;1284;22556;-79
2022/03/21 05:46:21;;;;;;;206.00;72.00;;;;;;;-1.77;55.23;101002.13;107484;1284;22665;-84
2022/03/21 05:48:51;;;;;;;139.90;57.40;;;;;;;-1.52;55.19;101002.17;107517;1284;22715;-84
2022/03/21 05:51:23;;;;;;;149.10;59.60;;;;;;;-1.25;55.01;101002.58;107511;1284;22550;-81
2022/03/21 05:53:51;;;;;;;129.90;52.20;;;;;;;-0.95;54.70;101000.77;107755;1284;22612;-75
2022/03/21 05:56:18;;;;;;;174.50;57.70;;;;;;;-0.67;54.50;101011.38;107519;1284;22570;-76
2022/03/21 05:58:45;;;;;;;173.30;66.90;;;;;;;-0.44;53.95;101010.92;107505;1284;22591;-78
2022/03/21 06:01:18;;;;;;;201.60;69.70;;;;;;;-0.24;53.13;101009.72;107480;1285;22725;-79
2022/03/21 06:03:46;;;;;;;207.70;67.20;;;;;;;-0.04;52.39;101009.34;107506;1284;22593;-79
2022/03/21 06:06:14;;;;;;;124.40;45.70;;;;;;;0.14;51.56;101015.27;107589;1284;22715;-85
2022/03/21 06:08:43;;;;;;;117.90;41.90;;;;;;;0.25;51.07;101016.30;107547;1285;23038;-78
2022/03/21 06:11:12;;;;;;;104.30;41.70;;;;;;;0.28;50.50;101016.33;107480;1284;25458;-73
2022/03/21 06:13:42;;;;;;;96.90;40.60;;;;;;;0.30;50.25;101015.50;107491;1284;24576;-74
2022/03/21 06:16:10;;;;;;;133.80;49.10;;;;;;;0.29;50.15;101012.07;107454;1284;22736;-71
2022/03/21 06:18:38;;;;;;;117.90;43.70;;;;;;;0.28;49.93;101011.52;107212;1285;22569;-72
2022/03/21 06:21:06;;;;;;;240.90;78.90;;;;;;;0.27;49.84;101010.83;107459;1285;22608;-73
2022/03/21 06:23:34;;;;;;;125.40;54.40;;;;;;;0.28;49.72;101015.82;107505;1284;24180;-72
2022/03/21 06:26:01;;;;;;;117.00;51.40;;;;;;;0.30;49.56;101017.73;107487;1284;24246;-70
2022/03/21 06:28:29;;;;;;;166.90;57.10;;;;;;;0.30;49.60;101017.56;107473;1284;22560;-72
2022/03/21 06:30:56;;;;;;;147.60;50.60;;;;;;;0.33;49.46;101015.89;107500;1284;22609;-72
2022/03/21 06:33:25;;;;;;;131.30;46.10;;;;;;;0.37;49.36;101017.14;107477;1284;22581;-76
2022/03/21 06:35:55;;;;;;;158.80;52.50;;;;;;;0.42;49.26;101018.42;107505;1284;24418;-74
2022/03/21 06:38:23;;;;;;;82.20;36.20;;;;;;;0.47;49.16;101024.99;107513;1284;22555;-76
2022/03/21 06:40:50;;;;;;;74.30;34.30;;;;;;;0.53;48.95;101024.21;107465;1284;23033;-76
2022/03/21 06:43:20;;;;;;;70.10;32.50;;;;;;;0.60;48.73;101022.77;107717;1284;24432;-78
2022/03/21 06:45:51;;;;;;;75.40;32.20;;;;;;;0.67;48.63;101023.89;107664;1284;22576;-73
2022/03/21 06:48:19;;;;;;;72.50;31.20;;;;;;;0.76;48.34;101020.06;107698;1284;22706;-76
2022/03/21 06:50:48;;;;;;;69.60;31.50;;;;;;;0.86;48.33;101022.93;107766;1283;22782;-72
2022/03/21 06:53:16;;;;;;;69.40;31.70;;;;;;;0.96;48.03;101024.08;107761;1284;22649;-77
2022/03/21 06:55:44;;;;;;;66.40;30.70;;;;;;;1.07;47.78;101022.48;107798;1284;22553;-81
2022/03/21 06:58:13;;;;;;;78.20;31.80;;;;;;;1.18;47.60;101026.21;107750;1284;22572;-73
2022/03/21 07:00:46;;;;;;;82.20;33.30;;;;;;;1.29;47.33;101025.98;107806;1284;22563;-79
2022/03/21 07:03:15;;;;;;;108.60;37.90;;;;;;;1.42;47.20;101028.02;107792;1284;22553;-73
2022/03/21 07:05:42;;;;;;;88.10;31.60;;;;;;;1.53;46.74;101028.80;107811;1284;22548;-73
2022/03/21 07:08:09;;;;;;;116.30;40.20;;;;;;;1.69;46.36;101029.45;107765;1284;22625;-74
2022/03/21 07:10:40;;;;;;;86.10;33.30;;;;;;;1.81;46.01;101023.39;107797;1284;22727;-73
2022/03/21 07:13:08;;;;;;;70.30;29.40;;;;;;;1.93;45.79;101027.09;107731;1284;22562;-72
2022/03/21 07:15:37;;;;;;;83.50;34.40;;;;;;;2.07;45.66;101030.96;107757;1284;22557;-76
2022/03/21 07:18:05;;;;;;;68.20;27.70;;;;;;;2.17;45.37;101031.04;107750;1284;22651;-80
2022/03/21 07:20:32;;;;;;;61.40;26.90;;;;;;;2.29;45.39;101026.98;107787;1284;23141;-75
2022/03/21 07:23:00;;;;;;;57.00;26.90;;;;;;;2.39;45.25;101027.57;107773;1284;23233;-73
2022/03/21 07:25:28;;;;;;;57.10;26.30;;;;;;;2.51;45.11;101030.56;107781;1284;22641;-72
2022/03/21 07:27:55;;;;;;;62.30;25.20;;;;;;;2.64;44.75;101024.61;107752;1284;22653;-73
2022/03/21 07:30:22;;;;;;;56.70;25.80;;;;;;;2.78;44.42;101028.11;107759;1284;22637;-81
2022/03/21 07:32:50;;;;;;;66.70;28.10;;;;;;;2.92;44.15;101024.89;107775;1284;22572;-81
2022/03/21 07:35:17;;;;;;;48.90;25.70;;;;;;;3.08;43.84;101020.65;107765;1284;22567;-73
2022/03/21 07:37:50;;;;;;;50.40;25.40;;;;;;;3.25;41.93;101021.39;107792;1284;24388;-75
2022/03/21 07:40:18;;;;;;;56.50;28.20;;;;;;;3.44;41.56;101023.84;107791;1283;22565;-74
2022/03/21 07:42:47;;;;;;;42.10;22.20;;;;;;;3.60;41.78;101020.41;107776;1284;22594;-83
2022/03/21 07:48:02;;;;;;;34.00;18.80;;;;;;;3.92;40.04;101016.11;107774;1284;22607;-76
2022/03/21 07:50:30;;;;;;;37.50;20.30;;;;;;;4.07;39.28;101012.49;107742;1284;22673;-73
2022/03/21 07:53:00;;;;;;;44.90;20.50;;;;;;;4.22;38.27;101016.60;107429;1285;22613;-73
2022/03/21 07:55:31;;;;;;;32.30;17.60;;;;;;;4.35;38.67;101013.64;107753;1284;22687;-74
2022/03/21 07:57:59;;;;;;;30.40;16.40;;;;;;;4.47;38.60;101011.89;107461;1284;24255;-73
2022/03/21 08:00:30;;;;;;;32.40;16.80;;;;;;;4.59;38.11;101012.89;107755;1284;22647;-77
2022/03/21 08:02:58;;;;;;;31.50;16.30;;;;;;;4.72;37.33;101011.11;107764;1284;22570;-74
2022/03/21 08:05:28;;;;;;;28.70;16.60;;;;;;;4.83;37.61;101004.16;107452;1285;22575;-83
2022/03/21 08:07:56;;;;;;;35.10;17.80;;;;;;;4.97;37.11;101003.25;107753;1284;24243;-74
2022/03/21 08:10:24;;;;;;;34.30;18.80;;;;;;;5.05;37.06;101007.69;107740;1284;22544;-82
2022/03/21 08:12:52;;;;;;;30.90;17.00;;;;;;;5.13;37.13;101003.85;107746;1285;22772;-74
2022/03/21 08:15:19;;;;;;;26.80;15.20;;;;;;;5.21;36.96;101004.49;107773;1284;24278;-82
2022/03/21 08:17:57;;;;;;;37.80;19.30;;;;;;;5.28;36.68;101005.66;107761;1284;22632;-74
2022/03/21 08:20:33;;;;;;;47.30;22.40;;;;;;;5.37;36.78;101006.45;107674;1285;22749;-85
2022/03/21 08:23:06;;;;;;;40.20;19.20;;;;;;;5.46;36.55;101009.00;107486;1285;22563;-77
2022/03/21 08:25:41;;;;;;;66.10;28.50;;;;;;;5.56;36.43;101002.88;107431;1285;22719;-80
2022/03/21 08:28:09;;;;;;;37.80;19.00;;;;;;;5.67;35.55;101003.66;107488;1285;22560;-76
2022/03/21 08:30:38;;;;;;;35.30;17.10;;;;;;;5.74;35.49;101001.20;107418;1285;22595;-80
2022/03/21 08:33:07;;;;;;;32.80;17.50;;;;;;;5.86;34.65;101001.45;107411;1285;22553;-76
2022/03/21 08:35:36;;;;;;;27.00;15.90;;;;;;;5.93;35.01;101004.52;107454;1285;22665;-79
2022/03/21 08:38:09;;;;;;;26.10;15.10;;;;;;;6.01;35.08;101003.58;107444;1285;22571;-75
2022/03/21 08:40:37;;;;;;;25.90;14.10;;;;;;;6.08;34.85;101000.75;107519;1285;22535;-74
2022/03/21 08:43:06;;;;;;;30.30;18.60;;;;;;;6.19;34.73;100995.80;107530;1285;22770;-86
2022/03/21 08:45:35;;;;;;;24.70;14.50;;;;;;;6.31;34.61;100997.42;107483;1285;22566;-75
2022/03/21 08:48:02;;;;;;;26.00;15.60;;;;;;;6.39;34.80;100997.31;107519;1285;22554;-79
2022/03/21 08:50:30;;;;;;;26.10;15.40;;;;;;;6.46;34.16;100994.46;107497;1285;22606;-75
2022/03/21 08:52:58;;;;;;;28.20;15.90;;;;;;;6.53;34.29;100996.64;107512;1285;24268;-81
2022/03/21 08:55:25;;;;;;;25.00;14.00;;;;;;;6.61;34.11;100995.70;107543;1285;22701;-74
2022/03/21 08:57:52;;;;;;;25.10;14.20;;;;;;;6.70;34.26;100994.02;107483;1285;22597;-76
2022/03/21 09:00:20;;;;;;;27.90;16.70;;;;;;;6.81;33.82;100997.19;107481;1285;22567;-79
2022/03/21 09:02:48;;;;;;;30.50;17.10;;;;;;;6.88;32.67;100993.45;107526;1284;22626;-75
2022/03/21 09:05:17;;;;;;;29.80;16.50;;;;;;;6.87;32.91;100991.41;107487;1285;22569;-78
2022/03/21 09:07:44;;;;;;;29.70;15.70;;;;;;;6.91;33.30;100991.67;107491;1285;22564;-74
2022/03/21 09:10:13;;;;;;;24.40;14.30;;;;;;;6.99;33.00;100989.15;107443;1285;22574;-81
2022/03/21 09:12:43;;;;;;;25.10;14.80;;;;;;;7.06;33.01;100992.86;107508;1285;24274;-75
2022/03/21 09:15:11;;;;;;;32.30;17.40;;;;;;;7.16;31.84;100992.38;107498;1285;23006;-77
2022/03/21 09:17:39;;;;;;;26.40;16.00;;;;;;;7.19;31.68;100990.61;107617;1285;22765;-77
2022/03/21 09:20:07;;;;;;;23.10;12.70;;;;;;;7.18;31.67;100989.23;107567;1285;22561;-78
2022/03/21 09:22:34;;;;;;;25.80;15.00;;;;;;;7.22;32.01;100984.52;107518;1285;26736;-75
2022/03/21 09:25:01;;;;;;;26.00;16.20;;;;;;;7.26;32.11;100982.70;107205;1285;22625;-75
2022/03/21 09:27:28;;;;;;;26.20;15.20;;;;;;;7.30;31.77;100982.66;107509;1285;25538;-76
2022/03/21 09:29:56;;;;;;;24.80;14.10;;;;;;;7.38;32.09;100978.55;107529;1285;22549;-75
2022/03/21 09:32:23;;;;;;;23.20;13.20;;;;;;;7.48;31.60;100972.84;107499;1285;22618;-76
2022/03/21 09:34:50;;;;;;;23.10;12.90;;;;;;;7.56;30.50;100973.75;107513;1285;22613;-78
2022/03/21 09:37:17;;;;;;;25.80;15.40;;;;;;;7.61;29.91;100968.66;107213;1285;24242;-76
2022/03/21 09:39:44;;;;;;;27.80;14.30;;;;;;;7.62;30.17;100965.33;107495;1285;24226;-76
2022/03/21 09:42:12;;;;;;;22.20;13.50;;;;;;;7.68;30.36;100964.04;107496;1285;22673;-75
2022/03/21 09:44:39;;;;;;;22.80;12.60;;;;;;;7.75;29.76;100964.61;107472;1285;22566;-75
2022/03/21 09:49:58;;;;;;;20.30;12.40;;;;;;;7.91;29.49;100960.00;107490;1285;22551;-78
2022/03/21 09:52:27;;;;;;;24.20;12.30;;;;;;;7.97;29.43;100956.94;107559;1285;22748;-77
2022/03/21 09:54:55;;;;;;;26.10;14.00;;;;;;;8.05;28.58;100949.88;107486;1284;26900;-75
2022/03/21 09:57:25;;;;;;;22.30;12.10;;;;;;;8.09;28.85;100952.38;107464;1285;22576;-74
2022/03/21 09:59:52;;;;;;;21.40;12.60;;;;;;;8.14;28.72;100945.16;107484;1284;24281;-73
2022/03/21 10:02:21;;;;;;;19.80;11.90;;;;;;;8.17;28.84;100945.13;107480;1284;22583;-76
2022/03/21 10:04:48;;;;;;;19.10;12.50;;;;;;;8.21;29.00;100941.05;107462;1285;22629;-75
2022/03/21 10:07:23;;;;;;;18.30;11.40;;;;;;;8.28;28.07;100946.11;107467;1285;25589;-76
2022/03/21 10:10:12;;;;;;;18.70;11.70;;;;;;;8.36;28.37;100942.34;107481;1284;22679;-78
2022/03/21 10:12:39;;;;;;;20.10;12.50;;;;;;;8.46;28.22;100938.85;107456;1285;22565;-73
2022/03/21 10:15:08;;;;;;;17.30;10.60;;;;;;;8.53;28.27;100937.48;107480;1285;22549;-74
2022/03/21 10:17:35;;;;;;;20.80;11.60;;;;;;;8.58;28.15;100936.54;107525;1284;22547;-75
2022/03/21 10:20:04;;;;;;;19.40;11.70;;;;;;;8.60;27.87;100932.99;107453;1284;23303;-75
2022/03/21 10:22:31;;;;;;;19.60;12.40;;;;;;;8.64;28.20;100928.94;107471;1284;22558;-74
2022/03/21 10:25:04;;;;;;;17.50;10.30;;;;;;;8.72;28.09;100929.98;107485;1284;22667;-74
2022/03/21 10:27:36;;;;;;;17.20;10.50;;;;;;;8.80;27.93;100925.81;107191;1285;22672;-74
2022/03/21 10:30:09;;;;;;;20.70;13.10;;;;;;;8.84;27.30;100918.09;107511;1284;22571;-74
2022/03/21 10:32:44;;;;;;;17.90;11.10;;;;;;;8.85;26.01;100918.58;107511;1284;22619;-74
2022/03/21 10:35:22;;;;;;;19.10;10.50;;;;;;;8.89;26.88;100919.02;107489;1284;22717;-75
2022/03/21 10:37:58;;;;;;;18.70;10.80;;;;;;;8.93;26.64;100915.63;107503;1284;25394;-74
2022/03/21 10:40:44;;;;;;;18.40;11.40;;;;;;;8.95;26.51;100908.44;107498;1284;22557;-75
2022/03/21 10:43:19;;;;;;;18.30;11.70;;;;;;;9.03;26.90;100915.05;107566;1284;22585;-79
2022/03/21 10:45:53;;;;;;;22.80;13.70;;;;;;;9.12;26.90;100909.63;107513;1284;22620;-76
2022/03/21 10:48:25;;;;;;;63.60;33.30;;;;;;;9.13;26.54;100907.33;107488;1285;22759;-76
2022/03/21 10:50:54;;;;;;;79.00;44.40;;;;;;;9.20;26.31;100905.11;107439;1284;22746;-76
2022/03/21 10:53:27;;;;;;;29.50;17.30;;;;;;;9.24;26.27;100905.15;107497;1284;22553;-72
2022/03/21 10:56:02;;;;;;;32.00;21.40;;;;;;;9.28;26.45;100903.16;107487;1284;25915;-74
2022/03/21 10:58:39;;;;;;;28.20;17.40;;;;;;;9.26;26.62;100904.60;107681;1284;24516;-77
2022/03/21 11:01:23;;;;;;;24.30;14.90;;;;;;;9.28;26.91;100902.98;107479;1284;22638;-82
2022/03/21 11:03:56;;;;;;;22.40;13.50;;;;;;;9.37;26.69;100903.45;107493;1284;23027;-78
2022/03/21 11:06:24;;;;;;;20.80;12.50;;;;;;;9.43;26.61;100901.40;107504;1285;22657;-75
2022/03/21 11:08:52;;;;;;;21.70;12.80;;;;;;;9.43;26.77;100893.23;107610;1284;25404;-75
2022/03/21 11:11:20;;;;;;;22.00;13.70;;;;;;;9.49;26.54;100894.98;107516;1284;22587;-76
2022/03/21 11:13:48;;;;;;;28.60;16.70;;;;;;;9.52;26.88;100891.27;107488;1284;25470;-76
2022/03/21 11:16:19;;;;;;;21.80;12.90;;;;;;;9.55;26.87;100884.75;107460;1284;22635;-75
2022/03/21 11:18:47;;;;;;;23.80;14.70;;;;;;;9.60;26.75;100880.11;107478;1284;22667;-73
2022/03/21 11:21:15;;;;;;;37.80;23.40;;;;;;;9.70;26.73;100877.74;107433;1284;22572;-77
2022/03/21 11:23:42;;;;;;;26.00;16.30;;;;;;;9.74;26.74;100876.77;107444;1284;23169;-83
2022/03/21 11:26:30;;;;;;;25.30;15.10;;;;;;;9.80;26.35;100875.05;107229;1284;22636;-79
2022/03/21 11:29:15;;;;;;;27.40;16.20;;;;;;;9.88;26.40;100870.31;107480;1284;24245;-73